Terminal Aerodrome Forecast
Issued by NWS

Home | Current Version | Previous Version | Text Only | Print | Product List | Glossary On
Versions: 1 2 3 4 5 6 7 8 9 10 11 12 13 14 15 16 17 18 19 20 21 22 23 24 25 26
000
FTUS46 KMTR 260901 AAA
TAFSFO
TAF AMD
KSFO 260901Z 2609/2712 28010KT P6SM SCT012
     FM261100 27006KT P6SM BKN012
     FM261200 27005KT P6SM OVC012
     FM261700 28007KT P6SM FEW016
     FM262000 30014G19KT P6SM FEW020
     FM270400 29010KT P6SM FEW015
     FM270900 29008KT P6SM SCT012=

USA.gov is the U.S. government's official web portal to all federal, state and local government web resources and services.